Time;durP1;ratioP1;P1;durP2;ratioP2;P2;SDS_P1;SDS_P2;PMS_P1;PMS_P2;Temp;Humidity;BMP_temperature;BMP_pressure;BME280_temperature;BME280_humidity;BME280_pressure;Samples;Min_cycle;Max_cycle;Signal;HPM_P1;HPM_P2
2021/09/30 04:45:58;;;;;;;17.52;12.33;;;;;;;6.11;92.03;101704.45;1696136;82;21097;-31
2021/09/30 04:48:27;;;;;;;28.38;12.63;;;;;;;6.20;92.01;101706.51;1695901;82;21065;-37
2021/09/30 04:50:56;;;;;;;21.23;12.82;;;;;;;6.23;91.87;101700.56;1696019;83;21061;-38
2021/09/30 04:53:23;;;;;;;18.90;12.25;;;;;;;6.27;91.91;101702.05;1690299;83;21407;-37
2021/09/30 04:55:50;;;;;;;18.55;12.93;;;;;;;6.36;91.79;101700.22;1690184;83;21100;-32
2021/09/30 04:58:17;;;;;;;18.40;12.35;;;;;;;6.44;91.60;101706.62;1690587;83;21486;-32
2021/09/30 05:00:45;;;;;;;17.87;12.43;;;;;;;6.54;91.29;101707.42;1696295;82;21569;-31
2021/09/30 05:03:16;;;;;;;16.87;11.53;;;;;;;6.63;90.91;101708.20;1702666;82;21102;-32
2021/09/30 05:05:43;;;;;;;16.87;12.55;;;;;;;6.73;90.49;101706.86;1671179;83;21096;-37
2021/09/30 05:08:10;;;;;;;17.92;11.70;;;;;;;6.82;90.03;101704.16;1696049;83;21074;-32
2021/09/30 05:10:40;;;;;;;15.38;10.78;;;;;;;6.91;89.67;101711.02;1693353;83;21045;-37
2021/09/30 05:13:12;;;;;;;22.27;11.22;;;;;;;7.01;89.22;101712.23;1693872;82;21032;-37
2021/09/30 05:15:39;;;;;;;14.78;10.80;;;;;;;7.08;88.87;101713.38;1686724;82;21064;-32
2021/09/30 05:18:18;;;;;;;24.00;11.95;;;;;;;7.16;88.50;101717.13;1684428;82;21094;-34
2021/09/30 05:20:46;;;;;;;23.45;12.03;;;;;;;7.23;88.20;101715.20;1685327;82;21112;-33
2021/09/30 05:23:14;;;;;;;17.80;10.38;;;;;;;7.31;87.91;101723.31;1687046;83;21038;-37
2021/09/30 05:25:47;;;;;;;12.58;9.80;;;;;;;7.38;87.13;101728.78;1690418;83;21106;-33
2021/09/30 05:28:19;;;;;;;17.00;10.93;;;;;;;7.42;86.76;101722.86;1667980;83;21057;-37
2021/09/30 05:30:47;;;;;;;16.70;10.40;;;;;;;7.48;86.52;101719.59;1685354;83;20969;-38
2021/09/30 05:33:20;;;;;;;14.13;10.23;;;;;;;7.58;86.27;101720.35;1686289;83;21557;-38
2021/09/30 05:35:48;;;;;;;14.10;10.03;;;;;;;7.71;85.98;101722.57;1684240;83;21127;-37
2021/09/30 05:38:15;;;;;;;14.18;8.78;;;;;;;7.84;85.12;101716.05;1696598;82;21305;-33
2021/09/30 05:40:48;;;;;;;9.83;8.10;;;;;;;7.99;83.77;101716.54;1667211;84;21039;-37
2021/09/30 05:43:30;;;;;;;18.80;8.53;;;;;;;8.14;81.88;101719.20;1692641;83;21065;-38
2021/09/30 05:45:58;;;;;;;12.73;8.20;;;;;;;8.24;80.57;101720.84;1694389;83;21071;-33
2021/09/30 05:48:22;;;;;;;12.60;7.50;;;;;;;8.37;79.32;101727.78;1701403;83;21053;-33
2021/09/30 05:50:50;;;;;;;9.55;6.95;;;;;;;8.46;78.47;101722.42;1683832;83;21037;-38
2021/09/30 05:53:20;;;;;;;13.40;6.53;;;;;;;8.58;77.58;101717.11;1696261;82;21049;-38
2021/09/30 05:56:07;;;;;;;9.73;6.78;;;;;;;8.67;76.53;101722.20;1699274;83;21530;-35
2021/09/30 05:58:35;;;;;;;9.40;6.22;;;;;;;8.78;76.00;101720.80;1700439;82;21093;-38
2021/09/30 06:01:28;;;;;;;9.45;6.67;;;;;;;8.89;75.24;101719.83;1698503;82;21068;-38
2021/09/30 06:12:01;;;;;;;8.00;5.87;;;;;;;9.22;71.68;101719.00;1698116;83;21064;-38
2021/09/30 06:14:28;;;;;;;10.85;5.90;;;;;;;9.32;71.34;101718.42;1700460;83;21053;-37
2021/09/30 06:16:49;;;;;;;9.23;6.85;;;;;;;9.43;71.14;101716.11;1698743;82;21099;-37
2021/09/30 06:19:22;;;;;;;11.48;6.42;;;;;;;9.52;70.04;101713.76;1683707;83;21060;-37
2021/09/30 06:21:52;;;;;;;9.80;5.58;;;;;;;9.59;69.35;101713.95;1695990;82;21158;-32
2021/09/30 06:24:22;;;;;;;7.10;5.67;;;;;;;9.69;69.46;101720.73;1699439;83;21049;-38
2021/09/30 06:26:52;;;;;;;6.63;5.07;;;;;;;9.77;69.37;101717.88;1697779;82;20969;-33
2021/09/30 06:29:20;;;;;;;11.97;6.78;;;;;;;9.85;67.91;101719.83;1697731;83;21659;-34
2021/09/30 06:31:48;;;;;;;7.17;4.97;;;;;;;9.90;67.33;101709.50;1697442;82;21525;-33
2021/09/30 06:34:31;;;;;;;11.25;4.97;;;;;;;9.97;66.66;101714.06;1699919;82;21654;-34
2021/09/30 06:37:00;;;;;;;7.72;4.70;;;;;;;10.04;65.33;101712.05;1701943;83;21392;-31
2021/09/30 06:39:27;;;;;;;6.72;5.28;;;;;;;10.11;64.75;101711.34;1681448;83;21131;-33
2021/09/30 06:41:55;;;;;;;6.03;4.87;;;;;;;10.18;64.76;101712.80;1700396;82;21366;-32
2021/09/30 06:44:32;;;;;;;8.83;4.90;;;;;;;10.25;64.32;101714.73;1664443;84;21085;-37
2021/09/30 06:47:17;;;;;;;7.62;4.87;;;;;;;10.33;63.99;101720.63;1663740;84;21077;-32
2021/09/30 06:49:44;;;;;;;14.00;7.15;;;;;;;10.38;63.46;101716.39;1695343;82;21906;-38
2021/09/30 06:52:16;;;;;;;6.70;4.97;;;;;;;10.45;63.10;101716.53;1697886;82;21018;-32
2021/09/30 06:54:44;;;;;;;8.48;5.00;;;;;;;10.51;63.06;101713.62;1696443;82;21749;-32
2021/09/30 06:57:29;;;;;;;10.28;4.30;;;;;;;10.59;62.52;101723.83;1700884;82;20982;-37
2021/09/30 07:00:15;;;;;;;8.78;5.87;;;;;;;10.66;62.31;101717.87;1700148;83;21021;-37
2021/09/30 07:02:57;;;;;;;10.18;5.22;;;;;;;10.76;62.17;101716.35;1663974;85;21403;-37
2021/09/30 07:05:33;;;;;;;10.00;4.95;;;;;;;10.86;61.31;101714.83;1635551;86;21054;-38
2021/09/30 07:08:06;;;;;;;12.25;5.30;;;;;;;10.95;61.23;101721.98;1632167;86;21120;-37
2021/09/30 07:10:33;;;;;;;9.93;4.72;;;;;;;11.02;61.06;101716.92;1665000;85;21434;-38
2021/09/30 07:13:00;;;;;;;9.58;5.03;;;;;;;11.10;60.21;101726.23;1635103;86;21039;-38
2021/09/30 07:15:29;;;;;;;9.35;5.75;;;;;;;11.17;59.12;101722.45;1667332;84;21655;-38
2021/09/30 07:17:56;;;;;;;9.03;5.12;;;;;;;11.24;58.82;101729.13;1664185;85;21385;-38
2021/09/30 07:20:23;;;;;;;13.03;5.35;;;;;;;11.30;58.57;101724.00;1663962;85;21057;-38
2021/09/30 07:22:50;;;;;;;10.25;5.00;;;;;;;11.37;58.02;101719.36;1633339;87;21472;-38
2021/09/30 07:25:17;;;;;;;9.43;4.62;;;;;;;11.44;57.89;101725.17;1667241;85;21113;-38
2021/09/30 07:27:45;;;;;;;12.78;4.10;;;;;;;11.51;57.06;101723.54;1666950;85;20994;-33
2021/09/30 07:30:13;;;;;;;3.65;2.90;;;;;;;11.60;56.94;101718.48;1667787;85;21459;-31
2021/09/30 07:32:40;;;;;;;9.53;3.55;;;;;;;11.69;55.34;101716.89;1663664;85;21049;-37
2021/09/30 07:35:07;;;;;;;12.28;4.90;;;;;;;11.81;54.22;101724.52;1660318;85;21621;-37
2021/09/30 07:37:34;;;;;;;11.12;4.58;;;;;;;11.91;53.92;101720.81;1663144;85;21540;-38
2021/09/30 07:40:01;;;;;;;7.80;3.80;;;;;;;12.01;53.65;101720.55;1695570;83;21551;-37
2021/09/30 07:42:28;;;;;;;5.37;2.98;;;;;;;12.09;53.43;101718.92;1696346;82;21981;-32
2021/09/30 07:44:55;;;;;;;7.78;3.33;;;;;;;12.14;52.63;101722.50;1698816;83;21080;-38
2021/09/30 07:47:24;;;;;;;8.40;3.62;;;;;;;12.22;52.48;101718.25;1700331;83;21454;-33
2021/09/30 07:49:51;;;;;;;5.42;2.87;;;;;;;12.30;52.40;101709.20;1694414;82;21078;-32
2021/09/30 07:52:18;;;;;;;4.20;3.27;;;;;;;12.36;50.92;101717.17;1688886;83;21066;-33
2021/09/30 07:54:47;;;;;;;3.67;2.20;;;;;;;12.40;50.51;101716.33;1699493;82;21112;-32
2021/09/30 07:57:13;;;;;;;7.58;3.15;;;;;;;12.44;49.97;101717.27;1700713;82;20962;-33
2021/09/30 07:59:41;;;;;;;5.95;3.25;;;;;;;12.52;50.35;101718.25;1699667;82;21090;-33
2021/09/30 08:02:08;;;;;;;8.68;3.95;;;;;;;12.58;50.38;101713.12;1697834;82;21017;-38
2021/09/30 08:04:34;;;;;;;5.70;3.10;;;;;;;12.66;49.55;101711.47;1693382;83;21058;-32
2021/09/30 08:07:05;;;;;;;9.75;2.72;;;;;;;12.73;49.26;101703.25;1689543;83;21022;-38
2021/09/30 08:09:36;;;;;;;5.58;2.75;;;;;;;12.78;49.51;101699.82;1700870;82;21185;-32
2021/09/30 08:12:06;;;;;;;3.20;2.70;;;;;;;12.85;49.88;101703.41;1700824;82;21028;-37
2021/09/30 08:14:33;;;;;;;6.17;2.85;;;;;;;12.93;49.84;101697.84;1703499;82;21061;-33
2021/09/30 08:17:01;;;;;;;5.12;2.80;;;;;;;13.02;49.81;101700.99;1701453;82;21348;-38
2021/09/30 08:19:31;;;;;;;9.48;3.12;;;;;;;13.07;48.56;101698.42;1696165;82;21016;-37
2021/09/30 08:21:57;;;;;;;7.67;3.60;;;;;;;13.08;48.57;101693.18;1700422;82;21301;-34
2021/09/30 08:24:25;;;;;;;5.17;3.25;;;;;;;13.11;48.45;101702.43;1693998;82;21064;-32
2021/09/30 08:26:54;;;;;;;4.08;3.12;;;;;;;13.18;47.65;101696.38;1698734;82;21088;-32
2021/09/30 08:29:21;;;;;;;5.42;3.08;;;;;;;13.27;48.07;101699.12;1680184;84;21049;-33
2021/09/30 08:31:48;;;;;;;5.17;3.15;;;;;;;13.35;47.87;101704.48;1688437;83;21020;-34
2021/09/30 08:34:15;;;;;;;5.58;2.95;;;;;;;13.39;48.00;101698.37;1689954;83;21410;-42
2021/09/30 08:36:42;;;;;;;7.85;3.58;;;;;;;13.43;47.60;101699.30;1693333;83;21774;-39
2021/09/30 08:39:10;;;;;;;4.10;2.98;;;;;;;13.45;47.73;101700.19;1688538;84;21531;-39
2021/09/30 08:41:37;;;;;;;3.15;2.80;;;;;;;13.51;47.75;101696.30;1697844;84;21003;-39
2021/09/30 08:44:05;;;;;;;5.00;4.17;;;;;;;13.54;47.97;101689.77;1699264;83;21061;-38
2021/09/30 08:46:34;;;;;;;11.00;3.65;;;;;;;13.54;48.07;101692.41;1692555;84;21030;-39
2021/09/30 08:49:02;;;;;;;6.87;3.47;;;;;;;13.56;47.80;101684.97;1695815;83;21515;-33
2021/09/30 08:51:30;;;;;;;6.80;3.02;;;;;;;13.57;47.55;101672.73;1689280;83;21013;-33
2021/09/30 08:53:59;;;;;;;4.95;3.40;;;;;;;13.62;47.64;101676.69;1690902;83;21132;-37
2021/09/30 08:56:27;;;;;;;6.03;3.30;;;;;;;13.66;47.18;101677.17;1693490;82;21053;-37
2021/09/30 08:58:54;;;;;;;8.33;3.22;;;;;;;13.67;47.17;101673.67;1689511;83;21457;-32
2021/09/30 09:01:21;;;;;;;6.70;3.25;;;;;;;13.67;47.05;101673.67;1686969;83;20990;-32
2021/09/30 09:03:48;;;;;;;7.62;3.92;;;;;;;13.65;47.35;101671.04;1684602;83;21057;-38
2021/09/30 09:06:31;;;;;;;10.60;3.45;;;;;;;13.69;46.85;101669.33;1690972;83;21886;-33
2021/09/30 09:09:21;;;;;;;7.33;3.90;;;;;;;13.74;46.21;101666.28;1685053;81;21526;-33
2021/09/30 09:11:49;;;;;;;6.90;3.20;;;;;;;13.77;46.50;101665.88;1686362;83;21671;-33
2021/09/30 09:14:26;;;;;;;9.43;3.40;;;;;;;13.85;46.48;101667.25;1691092;83;21121;-38
2021/09/30 09:16:59;;;;;;;8.25;3.10;;;;;;;13.91;45.13;101658.53;1690385;83;21014;-38
2021/09/30 09:19:33;;;;;;;10.10;4.00;;;;;;;13.92;45.12;101661.63;1691373;83;21117;-33
2021/09/30 09:22:15;;;;;;;5.17;3.77;;;;;;;13.92;45.29;101661.63;1682718;83;21893;-33
2021/09/30 09:25:06;;;;;;;;;;;;;;;13.92;45.53;101663.83;1690559;83;21553;-32
2021/09/30 09:27:52;;;;;;;8.80;3.15;;;;;;;14.00;45.26;101662.12;1687258;83;20453;-32
2021/09/30 09:30:51;;;;;;;3.80;2.92;;;;;;;14.11;45.85;101656.94;1688413;83;20991;-32
2021/09/30 09:33:24;;;;;;;8.48;3.00;;;;;;;14.22;45.96;101659.22;1688599;83;21077;-32
2021/09/30 09:36:23;;;;;;;6.85;2.85;;;;;;;14.32;45.52;101657.50;1690495;83;21065;-38
2021/09/30 09:38:52;;;;;;;5.72;2.95;;;;;;;14.33;45.14;101653.58;1690583;82;21035;-33
2021/09/30 09:41:33;;;;;;;6.80;3.35;;;;;;;14.40;44.85;101652.30;1692335;83;20974;-32
2021/09/30 09:44:04;;;;;;;7.03;3.45;;;;;;;14.46;44.72;101649.27;1693240;83;21186;-38
2021/09/30 09:46:35;;;;;;;4.35;3.10;;;;;;;14.52;43.89;101653.72;1692508;83;20971;-37
2021/09/30 09:49:18;;;;;;;6.95;3.12;;;;;;;14.54;43.26;101655.91;1690130;83;21937;-38
2021/09/30 09:51:47;;;;;;;5.90;2.92;;;;;;;14.49;43.49;101658.51;1687399;83;20998;-37
2021/09/30 09:54:19;;;;;;;8.58;2.95;;;;;;;14.45;43.53;101655.41;1689078;83;21558;-32
2021/09/30 09:56:46;;;;;;;7.00;2.77;;;;;;;14.45;43.10;101648.82;1681266;83;20978;-33
2021/09/30 09:59:13;;;;;;;5.40;3.22;;;;;;;14.51;42.36;101648.02;1693428;83;21040;-33
2021/09/30 10:01:44;;;;;;;4.83;2.75;;;;;;;14.58;42.12;101649.35;1691294;83;20978;-33
2021/09/30 10:04:13;;;;;;;4.62;2.92;;;;;;;14.74;42.52;101652.07;1696332;83;21644;-37
2021/09/30 10:06:40;;;;;;;6.53;3.10;;;;;;;14.98;43.25;101648.65;1687879;83;21440;-32
2021/09/30 10:09:11;;;;;;;4.78;2.87;;;;;;;15.33;42.46;101649.61;1684767;83;21070;-37
2021/09/30 10:11:39;;;;;;;3.33;2.62;;;;;;;15.59;40.39;101646.99;1686630;83;21273;-37
2021/09/30 10:14:07;;;;;;;4.42;2.52;;;;;;;15.80;40.77;101650.56;1691362;82;21458;-39
2021/09/30 10:16:36;;;;;;;4.37;3.00;;;;;;;16.12;40.10;101646.16;1688992;83;21014;-38
2021/09/30 10:19:08;;;;;;;3.92;2.52;;;;;;;16.63;39.66;101644.23;1693308;83;21568;-38
2021/09/30 10:21:38;;;;;;;12.20;3.27;;;;;;;17.24;39.06;101637.37;1692652;83;21282;-38
2021/09/30 10:24:14;;;;;;;5.78;2.62;;;;;;;17.79;37.53;101638.30;1694588;83;21061;-39
2021/09/30 10:26:52;;;;;;;3.08;2.27;;;;;;;18.29;35.59;101634.30;1695669;83;20994;-34
2021/09/30 10:29:45;;;;;;;3.98;2.75;;;;;;;18.76;34.90;101624.94;1690661;83;21083;-32
2021/09/30 10:32:18;;;;;;;6.17;2.85;;;;;;;19.24;33.66;101625.16;1692875;83;21018;-39
2021/09/30 10:34:48;;;;;;;7.50;3.17;;;;;;;19.71;33.13;101624.89;1696276;83;21070;-40
2021/09/30 10:37:30;;;;;;;5.35;2.60;;;;;;;20.15;32.10;101617.92;1695538;83;21002;-38
2021/09/30 10:40:22;;;;;;;3.92;3.00;;;;;;;20.56;31.32;101622.45;1627383;86;21057;-40
2021/09/30 10:43:02;;;;;;;6.05;2.90;;;;;;;20.93;30.85;101608.36;1698573;83;20950;-34
2021/09/30 10:45:40;;;;;;;4.22;2.65;;;;;;;21.43;30.17;101619.67;1651671;83;21018;-35
2021/09/30 10:48:27;;;;;;;3.77;2.77;;;;;;;21.79;29.72;101616.54;1692899;83;21111;-39
2021/09/30 10:51:08;;;;;;;7.28;2.75;;;;;;;22.19;28.11;101614.19;1689271;84;21029;-34
2021/09/30 10:53:53;;;;;;;2.95;2.33;;;;;;;22.57;27.17;101607.79;1691688;83;21620;-40
2021/09/30 10:56:42;;;;;;;4.60;2.83;;;;;;;22.79;26.26;101602.23;1689957;83;21006;-34
2021/09/30 10:59:19;;;;;;;13.62;2.92;;;;;;;22.94;27.49;101606.71;1687040;83;21620;-38
2021/09/30 11:01:55;;;;;;;5.03;2.40;;;;;;;23.36;26.73;101605.81;1688154;83;21138;-39
2021/09/30 11:04:25;;;;;;;4.20;2.40;;;;;;;23.54;25.02;101602.56;1689030;83;21053;-39
2021/09/30 11:07:16;;;;;;;3.62;2.12;;;;;;;23.63;24.99;101601.39;1687360;83;21387;-38
2021/09/30 11:10:15;;;;;;;3.70;2.60;;;;;;;23.93;24.80;101602.60;1687498;84;21065;-38
2021/09/30 11:13:23;;;;;;;4.85;2.50;;;;;;;24.35;24.62;101600.22;1693028;84;21432;-38
2021/09/30 11:16:20;;;;;;;3.75;2.22;;;;;;;24.35;23.97;101600.22;1689501;83;20970;-38
2021/09/30 11:18:54;;;;;;;3.95;2.33;;;;;;;23.89;24.47;101596.52;1683570;83;21038;-38
2021/09/30 11:21:34;;;;;;;6.45;2.17;;;;;;;23.91;24.16;101589.30;1688661;83;21509;-38
2021/09/30 11:24:11;;;;;;;6.17;2.12;;;;;;;23.72;24.16;101590.41;1652282;85;21683;-38
2021/09/30 11:26:56;;;;;;;5.47;1.92;;;;;;;23.43;24.69;101589.16;1689732;84;21013;-38
2021/09/30 11:29:26;;;;;;;3.87;2.33;;;;;;;22.98;24.82;101581.23;1688586;83;21104;-38
2021/09/30 11:32:04;;;;;;;3.02;2.12;;;;;;;22.23;25.34;101590.55;1691975;84;21047;-38
2021/09/30 11:34:41;;;;;;;4.95;2.30;;;;;;;21.39;26.69;101590.91;1688433;84;21507;-38
2021/09/30 11:37:35;;;;;;;2.95;2.30;;;;;;;20.69;27.73;101585.39;1689930;84;20963;-38
2021/09/30 11:40:06;;;;;;;8.50;2.95;;;;;;;20.25;28.58;101588.95;1692878;84;21022;-38
2021/09/30 11:42:51;;;;;;;3.55;2.20;;;;;;;19.81;29.08;101593.30;1687864;84;21120;-38
2021/09/30 11:45:27;;;;;;;8.50;2.50;;;;;;;19.55;29.76;101590.20;1692537;83;21018;-38
2021/09/30 11:48:03;;;;;;;12.60;2.35;;;;;;;19.16;29.81;101585.06;1687971;84;21573;-38
2021/09/30 11:50:30;;;;;;;4.65;2.27;;;;;;;18.79;30.44;101590.45;1692258;84;21014;-38
2021/09/30 11:53:04;;;;;;;7.67;2.20;;;;;;;18.54;30.88;101590.30;1690025;84;21041;-38
2021/09/30 11:55:34;;;;;;;4.53;2.10;;;;;;;18.37;31.09;101584.32;1693104;83;21049;-38
2021/09/30 11:58:03;;;;;;;3.12;2.17;;;;;;;18.18;31.43;101593.80;1693482;84;20962;-38
2021/09/30 12:00:32;;;;;;;3.05;2.22;;;;;;;17.87;32.25;101591.93;1691489;84;21049;-39
2021/09/30 12:03:06;;;;;;;3.92;2.15;;;;;;;17.58;32.16;101585.55;1690888;84;21504;-38
2021/09/30 12:05:37;;;;;;;4.45;2.75;;;;;;;17.40;32.66;101585.25;1691565;84;21029;-38
2021/09/30 12:08:07;;;;;;;4.30;2.22;;;;;;;17.29;32.88;101578.72;1692629;83;21105;-39
2021/09/30 12:10:36;;;;;;;8.25;2.30;;;;;;;17.26;32.98;101578.72;1694086;84;21001;-39
2021/09/30 12:13:20;;;;;;;5.72;2.50;;;;;;;17.22;33.04;101578.34;1690204;84;21160;-38
2021/09/30 12:15:47;;;;;;;7.20;2.10;;;;;;;17.13;33.40;101572.22;1691314;83;21505;-39
2021/09/30 12:18:21;;;;;;;2.72;2.42;;;;;;;16.99;33.67;101567.03;1690601;84;21929;-38
2021/09/30 12:20:54;;;;;;;8.28;2.75;;;;;;;16.93;33.98;101569.27;1688354;84;20966;-38
2021/09/30 12:23:22;;;;;;;8.13;2.15;;;;;;;16.86;33.87;101568.84;1690605;84;21061;-38
2021/09/30 12:25:49;;;;;;;11.57;2.05;;;;;;;16.82;33.90;101558.33;1694340;84;21072;-39
2021/09/30 12:28:16;;;;;;;7.75;2.77;;;;;;;17.01;34.02;101558.64;1694334;84;21569;-38
2021/09/30 12:30:43;;;;;;;4.35;2.33;;;;;;;17.16;33.33;101563.84;1666765;84;21510;-38
2021/09/30 12:33:10;;;;;;;3.77;2.27;;;;;;;17.16;33.31;101562.52;1692039;83;21033;-38
2021/09/30 12:35:40;;;;;;;3.20;2.10;;;;;;;17.07;33.95;101559.92;1689907;84;21057;-38
2021/09/30 12:38:16;;;;;;;5.35;2.20;;;;;;;16.97;33.89;101553.80;1692296;84;21074;-34
2021/09/30 13:38:13;;;;;;;2.40;2.10;;;;;;;17.63;32.13;101530.81;1712499;81;21762;-33
2021/09/30 13:40:40;;;;;;;2.50;2.20;;;;;;;17.52;31.44;101528.72;1733861;82;21006;-33
2021/09/30 13:43:07;;;;;;;3.42;2.20;;;;;;;17.34;31.06;101524.47;1718286;82;21125;-34
2021/09/30 13:45:33;;;;;;;2.70;1.85;;;;;;;17.17;30.96;101520.63;1720055;82;21849;-39
2021/09/30 13:48:02;;;;;;;3.25;1.98;;;;;;;17.00;31.26;101521.20;1717114;83;21034;-39
2021/09/30 13:50:29;;;;;;;2.75;2.08;;;;;;;17.01;30.81;101521.63;1720973;82;21027;-38
2021/09/30 13:52:56;;;;;;;11.53;2.05;;;;;;;17.12;31.12;101517.59;1726046;83;21541;-37
2021/09/30 13:55:22;;;;;;;2.58;2.05;;;;;;;17.17;31.16;101517.98;1727742;83;21053;-34
2021/09/30 13:57:52;;;;;;;4.35;1.70;;;;;;;17.19;31.50;101518.84;1727538;83;21022;-34
2021/09/30 14:00:20;;;;;;;4.65;2.12;;;;;;;17.21;31.78;101513.53;1737855;82;21060;-34
2021/09/30 14:02:47;;;;;;;3.62;1.62;;;;;;;17.41;31.69;101516.90;1743907;82;21033;-38
2021/09/30 14:05:17;;;;;;;2.30;1.67;;;;;;;17.62;31.62;101513.61;1704606;83;21003;-38
2021/09/30 14:07:46;;;;;;;3.02;2.00;;;;;;;17.63;30.59;101516.27;1689414;84;20990;-33
2021/09/30 14:10:16;;;;;;;2.45;1.57;;;;;;;17.57;29.92;101517.64;1684571;84;21013;-38
2021/09/30 14:12:44;;;;;;;2.55;1.85;;;;;;;17.44;29.86;101515.53;1743597;82;21490;-38
2021/09/30 14:15:12;;;;;;;4.87;2.55;;;;;;;17.32;30.10;101506.84;1737984;82;21029;-34
2021/09/30 14:17:40;;;;;;;2.83;1.85;;;;;;;17.25;30.26;101507.34;1740628;82;21002;-34
2021/09/30 14:20:08;;;;;;;4.25;2.45;;;;;;;17.11;30.07;101503.49;1727306;82;21037;-34
2021/09/30 14:22:38;;;;;;;7.65;2.10;;;;;;;16.99;30.42;101504.91;1725457;83;21085;-37
2021/09/30 14:25:06;;;;;;;3.95;2.27;;;;;;;16.91;30.71;101504.07;1682893;83;21167;-34
2021/09/30 14:27:34;;;;;;;4.62;1.62;;;;;;;16.92;31.17;101504.05;1744179;82;21011;-38
2021/09/30 14:30:01;;;;;;;5.85;2.20;;;;;;;16.99;31.41;101509.75;1736130;82;21028;-33
2021/09/30 14:32:28;;;;;;;5.40;2.42;;;;;;;17.03;31.74;101496.92;1685823;84;21068;-40
2021/09/30 14:34:56;;;;;;;4.75;2.20;;;;;;;17.15;32.06;101500.36;1691413;84;21086;-34
2021/09/30 14:37:23;;;;;;;3.80;2.42;;;;;;;17.49;32.24;101507.11;1691413;83;21025;-39
2021/09/30 14:39:50;;;;;;;5.20;2.42;;;;;;;17.94;31.87;101503.60;1692629;82;21088;-32
2021/09/30 14:42:17;;;;;;;4.83;2.72;;;;;;;18.31;31.50;101504.47;1690889;85;21030;-31
2021/09/30 14:44:46;;;;;;;4.95;2.47;;;;;;;18.86;30.98;101499.77;1694650;84;21563;-37
2021/09/30 14:47:14;;;;;;;6.10;2.55;;;;;;;19.39;30.68;101494.91;1695531;84;21658;-37
2021/09/30 14:49:42;;;;;;;4.75;2.40;;;;;;;19.96;29.72;101493.89;1662404;85;21102;-32
2021/09/30 14:52:11;;;;;;;6.00;1.92;;;;;;;20.27;29.47;101490.14;1727678;83;21018;-33
2021/09/30 14:54:40;;;;;;;5.62;2.72;;;;;;;20.45;29.03;101496.41;1669777;85;21456;-32
2021/09/30 14:57:07;;;;;;;6.67;2.52;;;;;;;20.53;28.71;101492.73;1696270;83;21524;-37
2021/09/30 14:59:33;;;;;;;6.00;2.40;;;;;;;20.53;29.05;101498.05;1688384;83;21107;-37
2021/09/30 15:02:01;;;;;;;6.08;2.85;;;;;;;20.57;29.29;101501.05;1695354;84;21537;-37
2021/09/30 15:04:28;;;;;;;4.33;2.00;;;;;;;20.59;29.25;101506.77;1735191;83;21101;-37
2021/09/30 15:06:55;;;;;;;4.97;2.60;;;;;;;20.63;29.06;101500.45;1682469;85;21053;-32
2021/09/30 15:09:22;;;;;;;10.48;3.05;;;;;;;20.61;29.02;101503.60;1690040;83;21064;-37
2021/09/30 15:11:49;;;;;;;6.60;2.67;;;;;;;20.49;29.18;101502.55;1698580;83;21021;-38
2021/09/30 15:14:15;;;;;;;5.05;2.17;;;;;;;20.40;29.33;101504.91;1694707;83;21100;-39
2021/09/30 15:19:27;;;;;;;8.20;3.37;;;;;;;19.94;29.87;101510.29;1637891;87;21081;-33
2021/09/30 15:21:53;;;;;;;6.62;3.00;;;;;;;19.40;30.47;101512.58;1663450;85;21063;-33
2021/09/30 15:24:20;;;;;;;9.08;2.50;;;;;;;18.74;31.36;101510.11;1662214;86;21189;-35
2021/09/30 15:26:48;;;;;;;6.10;3.10;;;;;;;18.16;32.30;101514.83;1662635;86;21572;-38
2021/09/30 15:29:18;;;;;;;5.22;3.47;;;;;;;17.56;33.07;101519.38;1662419;85;21579;-40
2021/09/30 15:31:46;;;;;;;5.97;3.17;;;;;;;16.98;33.99;101519.87;1662402;86;21516;-39
2021/09/30 15:34:14;;;;;;;4.35;3.10;;;;;;;16.46;34.93;101519.27;1662623;86;21083;-34
2021/09/30 15:36:43;;;;;;;8.88;3.55;;;;;;;15.95;35.75;101525.20;1662713;85;21020;-33
2021/09/30 15:39:10;;;;;;;7.47;3.58;;;;;;;15.50;36.43;101527.45;1662320;86;21168;-33
2021/09/30 15:41:37;;;;;;;6.45;3.47;;;;;;;15.15;37.09;101529.64;1662640;86;21048;-40
2021/09/30 15:44:05;;;;;;;7.65;3.50;;;;;;;14.80;37.57;101528.27;1663616;84;21115;-37
2021/09/30 15:46:32;;;;;;;6.70;3.52;;;;;;;14.47;38.15;101533.00;1686465;84;21572;-35
2021/09/30 15:49:00;;;;;;;8.23;4.08;;;;;;;14.18;38.72;101531.09;1686019;85;21685;-33
2021/09/30 15:51:27;;;;;;;5.53;3.52;;;;;;;13.93;39.34;101535.36;1686106;85;21125;-39
2021/09/30 15:53:54;;;;;;;6.08;3.15;;;;;;;13.68;39.97;101535.61;1686043;85;21088;-38
2021/09/30 15:56:21;;;;;;;5.60;3.12;;;;;;;13.44;40.48;101532.80;1723901;82;21056;-39
2021/09/30 15:58:47;;;;;;;5.35;3.15;;;;;;;13.24;41.09;101544.05;1748824;82;21088;-34
2021/09/30 16:01:14;;;;;;;9.35;3.00;;;;;;;13.08;41.50;101543.42;1738830;82;21514;-38
2021/09/30 16:03:41;;;;;;;7.03;2.77;;;;;;;12.93;41.93;101549.83;1738267;82;21057;-35
2021/09/30 16:06:08;;;;;;;7.12;2.58;;;;;;;12.78;42.37;101544.88;1732315;82;20994;-38
2021/09/30 16:08:35;;;;;;;9.10;3.52;;;;;;;12.68;42.75;101555.26;1730124;81;21402;-38
2021/09/30 16:11:04;;;;;;;7.03;2.87;;;;;;;12.56;43.09;101549.44;1746393;82;21474;-38
2021/09/30 16:13:30;;;;;;;6.22;2.75;;;;;;;12.43;43.44;101553.66;1747863;82;21107;-34
2021/09/30 16:15:59;;;;;;;4.75;2.98;;;;;;;12.30;43.75;101550.45;1737951;82;21053;-39
2021/09/30 16:18:27;;;;;;;4.53;2.62;;;;;;;12.16;44.11;101558.11;1738221;82;21062;-33
2021/09/30 16:20:55;;;;;;;9.40;2.90;;;;;;;12.03;44.49;101561.44;1738058;82;21017;-38
2021/09/30 16:23:22;;;;;;;8.70;3.20;;;;;;;11.90;44.84;101560.39;1737513;82;21514;-38
2021/09/30 16:25:49;;;;;;;4.22;2.87;;;;;;;11.78;45.21;101568.48;1737330;82;21025;-34
2021/09/30 16:28:20;;;;;;;7.28;2.80;;;;;;;11.67;45.44;101571.80;1738055;82;21478;-39
2021/09/30 16:30:53;;;;;;;9.28;3.37;;;;;;;11.57;45.63;101570.32;1737766;82;21073;-34
2021/09/30 16:33:17;;;;;;;8.50;3.72;;;;;;;11.47;45.84;101574.52;1737799;82;21129;-33
2021/09/30 16:35:43;;;;;;;9.98;4.78;;;;;;;11.38;46.04;101568.71;1726413;82;21115;-34
2021/09/30 16:38:10;;;;;;;7.87;3.62;;;;;;;11.30;46.31;101572.92;1688702;84;21065;-33
2021/09/30 16:40:37;;;;;;;7.72;3.45;;;;;;;11.19;46.55;101571.45;1682886;85;21044;-33
2021/09/30 16:43:03;;;;;;;13.72;3.95;;;;;;;11.12;46.86;101572.60;1683380;85;21058;-33
2021/09/30 16:45:30;;;;;;;8.93;3.67;;;;;;;11.04;47.25;101579.02;1683099;84;21074;-33
2021/09/30 16:47:57;;;;;;;7.97;3.52;;;;;;;10.98;47.47;101583.27;1683109;85;21097;-39
2021/09/30 16:50:24;;;;;;;5.08;3.45;;;;;;;10.93;47.81;101585.80;1683411;84;21033;-38
2021/09/30 16:52:51;;;;;;;10.40;4.10;;;;;;;10.85;48.06;101580.85;1675005;85;21053;-33
2021/09/30 16:55:23;;;;;;;7.47;4.12;;;;;;;10.75;48.41;101588.06;1674784;86;21891;-32
2021/09/30 16:57:51;;;;;;;11.93;4.50;;;;;;;10.63;48.81;101584.34;1654435;86;21073;-33
2021/09/30 17:00:20;;;;;;;10.43;4.75;;;;;;;10.52;49.20;101585.86;1675957;85;21082;-39
2021/09/30 17:02:48;;;;;;;18.40;5.53;;;;;;;10.41;49.80;101582.13;1677422;85;21042;-38
2021/09/30 17:05:16;;;;;;;12.40;4.78;;;;;;;10.25;50.42;101584.84;1689062;84;21088;-38
2021/09/30 17:07:43;;;;;;;7.62;4.30;;;;;;;10.12;50.96;101581.47;1699636;84;21052;-38
2021/09/30 17:10:13;;;;;;;12.45;4.85;;;;;;;10.02;51.61;101576.45;1688236;84;21065;-38
